Time;durP1;ratioP1;P1;durP2;ratioP2;P2;SDS_P1;SDS_P2;PMS_P1;PMS_P2;Temp;Humidity;BMP_temperature;BMP_pressure;BME280_temperature;BME280_humidity;BME280_pressure;Samples;Min_cycle;Max_cycle;Signal;HPM_P1;HPM_P2
2024/04/19 00:01:46;;;;;;;;;7.75;5.25;;;;;11.60;49.34;101941.66;5314325;26;45753;-74
2024/04/19 00:04:11;;;;;;;;;5.00;5.00;;;;;11.51;48.98;101928.38;5313914;26;66716;-74
2024/04/19 00:06:37;;;;;;;;;4.75;4.00;;;;;11.54;49.79;101943.13;5312410;26;44156;-74
2024/04/19 00:09:02;;;;;;;;;8.00;7.00;;;;;11.47;50.02;101932.34;5312861;26;48594;-74
2024/04/19 00:11:28;;;;;;;;;4.00;4.00;;;;;11.50;49.86;101929.34;5269979;26;44913;-74
2024/04/19 00:13:53;;;;;;;;;6.75;4.75;;;;;11.50;50.13;101933.81;5323715;26;44174;-73
2024/04/19 00:16:18;;;;;;;;;10.00;8.75;;;;;11.44;49.98;101924.69;5315771;26;63285;-74
2024/04/19 00:18:44;;;;;;;;;8.75;6.00;;;;;11.45;49.61;101929.00;5316524;26;66844;-73
2024/04/19 00:21:09;;;;;;;;;4.75;4.75;;;;;11.41;49.29;101925.03;5311759;26;45179;-73
2024/04/19 00:23:36;;;;;;;;;4.50;4.50;;;;;11.45;50.26;101936.13;5310194;26;48920;-74
2024/04/19 00:26:01;;;;;;;;;7.00;5.25;;;;;11.31;49.92;101916.31;5314889;26;44031;-74
2024/04/19 00:28:27;;;;;;;;;8.25;4.00;;;;;11.39;49.79;101924.34;5314271;26;56902;-73
2024/04/19 00:30:55;;;;;;;;;10.50;7.00;;;;;11.38;51.08;101930.66;5316516;26;45114;-74
2024/04/19 00:33:21;;;;;;;;;6.25;4.00;;;;;11.31;50.43;101919.84;5311428;26;44052;-73
2024/04/19 00:35:46;;;;;;;;;6.50;4.50;;;;;11.33;50.27;101928.47;5326877;26;63132;-73
2024/04/19 00:38:12;;;;;;;;;8.50;6.00;;;;;11.33;51.25;101933.78;5314660;26;43950;-73
2024/04/19 00:40:37;;;;;;;;;6.75;4.00;;;;;11.27;50.86;101907.88;5311107;26;44921;-73
2024/04/19 00:43:03;;;;;;;;;7.00;6.50;;;;;11.29;49.91;101924.47;5311813;26;51569;-73
2024/04/19 00:45:33;;;;;;;;;7.50;6.00;;;;;11.25;50.86;101917.81;5311844;26;44060;-73
2024/04/19 00:47:58;;;;;;;;;9.00;7.25;;;;;11.25;51.06;101912.50;5311967;26;44037;-75
2024/04/19 00:50:24;;;;;;;;;7.00;6.00;;;;;11.23;50.38;101904.69;5302598;26;44105;-74
2024/04/19 00:52:49;;;;;;;;;5.50;5.50;;;;;11.22;50.36;101903.03;5316503;26;43913;-73
2024/04/19 00:55:15;;;;;;;;;9.00;5.25;;;;;11.19;50.50;101895.38;5290978;26;61303;-73
2024/04/19 00:57:40;;;;;;;;;7.00;3.00;;;;;11.18;51.60;101885.75;5310261;26;44298;-75
2024/04/19 01:00:06;;;;;;;;;5.25;5.25;;;;;11.18;51.88;101885.75;5294870;26;44612;-74
2024/04/19 01:02:32;;;;;;;;;7.75;6.50;;;;;11.17;50.88;101878.78;5277383;26;43975;-74
2024/04/19 01:04:58;;;;;;;;;3.75;3.75;;;;;11.14;50.76;101879.09;5289338;26;45582;-74
2024/04/19 01:07:23;;;;;;;;;7.00;5.50;;;;;11.11;51.99;101875.97;5311816;26;43898;-73
2024/04/19 01:09:50;;;;;;;;;6.50;6.00;;;;;11.02;51.68;101861.81;5284812;26;70013;-74
2024/04/19 01:12:15;;;;;;;;;6.50;4.00;;;;;11.06;50.91;101864.00;5284509;26;44479;-76
2024/04/19 01:14:40;;;;;;;;;5.00;4.00;;;;;11.12;50.57;101867.00;5269238;26;44903;-73
2024/04/19 01:17:06;;;;;;;;;4.75;4.75;;;;;11.11;51.04;101858.19;5309442;26;68022;-73
2024/04/19 01:19:31;;;;;;;;;5.00;3.00;;;;;11.10;52.04;101853.88;5316995;26;69651;-74
2024/04/19 01:21:57;;;;;;;;;9.75;4.00;;;;;11.11;51.26;101854.72;5309213;26;67288;-72
2024/04/19 01:24:44;;;;;;;;;8.00;7.00;;;;;11.04;51.23;101838.59;5310176;26;64818;-74
2024/04/19 01:27:10;;;;;;;;;4.75;4.75;;;;;11.07;51.77;101847.09;5302502;26;44425;-73
2024/04/19 01:29:38;;;;;;;;;7.00;4.00;;;;;11.08;51.05;101840.78;5313464;26;70649;-74
2024/04/19 01:32:04;;;;;;;;;5.50;3.00;;;;;11.06;52.42;101837.47;5314504;26;44233;-73
2024/04/19 01:34:29;;;;;;;;;5.25;4.00;;;;;11.05;52.44;101824.34;5309620;26;44181;-72
2024/04/19 01:36:55;;;;;;;;;3.75;3.75;;;;;11.06;52.02;101826.84;5271778;26;44105;-74
2024/04/19 01:39:20;;;;;;;;;3.50;3.50;;;;;11.03;51.18;101826.31;5313715;26;47494;-74
2024/04/19 01:41:46;;;;;;;;;4.00;4.00;;;;;11.03;52.68;101821.03;5309410;26;68010;-74
2024/04/19 01:44:12;;;;;;;;;4.75;4.25;;;;;11.02;51.53;101825.50;5313711;26;44579;-74
2024/04/19 01:46:37;;;;;;;;;4.75;3.00;;;;;10.94;52.06;101805.06;5268879;26;46689;-74
2024/04/19 01:49:03;;;;;;;;;8.00;4.25;;;;;11.02;52.30;101829.97;5302478;26;47186;-75
2024/04/19 01:51:28;;;;;;;;;4.50;4.00;;;;;11.02;52.35;101822.00;5246812;26;44089;-73
2024/04/19 01:53:53;;;;;;;;;3.25;3.25;;;;;10.99;52.40;101817.88;5309739;26;61600;-76
2024/04/19 01:56:19;;;;;;;;;4.00;4.00;;;;;10.97;51.94;101813.69;5313628;26;67376;-73
2024/04/19 01:58:44;;;;;;;;;4.00;4.00;;;;;10.96;51.96;101810.19;5311652;26;65509;-73
2024/04/19 02:01:09;;;;;;;;;3.25;3.25;;;;;10.94;53.37;101799.78;5312309;26;65960;-74
2024/04/19 02:03:40;;;;;;;;;8.50;4.00;;;;;10.93;53.24;101808.72;5281714;26;61459;-74
2024/04/19 02:06:12;;;;;;;;;5.75;3.25;;;;;10.88;52.62;101792.44;5310665;26;43969;-73
2024/04/19 02:08:37;;;;;;;;;6.25;4.00;;;;;10.93;53.05;101797.25;5306044;26;45277;-73
2024/04/19 02:11:03;;;;;;;;;5.00;3.00;;;;;10.92;53.48;101793.78;5318883;26;43950;-73
2024/04/19 02:13:28;;;;;;;;;4.25;3.00;;;;;10.90;53.76;101782.50;5280728;26;44351;-73
2024/04/19 02:15:54;;;;;;;;;6.25;5.75;;;;;10.90;53.54;101781.66;5309499;26;67074;-73
2024/04/19 02:18:19;;;;;;;;;4.00;3.75;;;;;10.91;52.69;101780.66;5313402;26;65757;-74
2024/04/19 02:20:44;;;;;;;;;5.75;3.25;;;;;10.87;52.48;101772.22;5316484;26;63183;-73
2024/04/19 02:23:10;;;;;;;;;7.50;5.75;;;;;10.84;53.65;101761.94;5313094;26;62421;-73
2024/04/19 02:25:35;;;;;;;;;3.00;3.00;;;;;10.80;53.82;101760.59;5313582;26;61026;-74
2024/04/19 02:31:00;;;;;;;;;9.00;4.00;;;;;10.76;54.74;101754.75;5283957;26;44094;-73
2024/04/19 02:33:26;;;;;;;;;6.25;4.25;;;;;10.81;53.78;101759.59;5314982;26;44250;-73
2024/04/19 02:35:51;;;;;;;;;3.00;3.00;;;;;10.79;54.23;101756.28;5318071;26;45793;-74
2024/04/19 02:38:17;;;;;;;;;8.00;4.00;;;;;10.75;54.40;101749.63;5315491;26;44727;-74
2024/04/19 02:40:42;;;;;;;;;4.00;3.00;;;;;10.75;53.94;101749.63;5289437;26;44042;-73
2024/04/19 02:43:08;;;;;;;;;5.50;4.50;;;;;10.75;54.36;101754.94;5296518;26;60708;-73
2024/04/19 02:45:39;;;;;;;;;7.25;3.75;;;;;10.63;53.99;101734.03;5318158;26;68535;-74
2024/04/19 02:48:08;;;;;;;;;8.00;6.00;;;;;10.76;54.88;101753.94;5323379;26;44745;-77
2024/04/19 02:50:33;;;;;;;;;6.25;5.25;;;;;10.71;55.54;101743.81;5252782;26;44118;-74
2024/04/19 02:52:59;;;;;;;;;4.75;3.00;;;;;10.70;54.73;101746.63;5317624;26;44045;-73
2024/04/19 02:55:24;;;;;;;;;8.00;5.00;;;;;10.69;54.56;101737.03;5317785;26;44014;-73
2024/04/19 02:57:50;;;;;;;;;6.25;4.00;;;;;10.59;55.12;101718.56;5312827;26;71798;-73
2024/04/19 03:00:15;;;;;;;;;7.50;4.50;;;;;10.59;55.95;101724.69;5313439;26;64483;-74
2024/04/19 03:02:40;;;;;;;;;9.75;5.75;;;;;10.60;56.16;101731.69;5313737;26;58983;-76
2024/04/19 03:05:06;;;;;;;;;4.75;4.75;;;;;10.61;54.91;101724.56;5316876;26;62396;-74
2024/04/19 03:07:31;;;;;;;;;5.50;4.00;;;;;10.59;55.99;101722.03;5315490;26;44942;-73
2024/04/19 03:09:57;;;;;;;;;9.25;7.00;;;;;10.62;55.24;101719.09;5288632;26;52403;-74
2024/04/19 03:12:22;;;;;;;;;6.25;3.25;;;;;10.63;55.08;101718.09;5319090;26;49092;-73
2024/04/19 03:14:47;;;;;;;;;5.00;5.00;;;;;10.59;55.49;101708.78;5324102;26;65113;-73
2024/04/19 03:17:13;;;;;;;;;7.00;6.00;;;;;10.53;55.68;101701.47;5274782;26;44015;-73
2024/04/19 03:19:38;;;;;;;;;7.75;6.00;;;;;10.56;55.96;101706.44;5282953;26;68739;-73
2024/04/19 03:22:04;;;;;;;;;8.25;6.50;;;;;10.63;55.52;101717.25;5313322;26;62386;-73
2024/04/19 03:24:29;;;;;;;;;10.00;7.00;;;;;10.62;55.73;101708.50;5334186;26;43961;-73
2024/04/19 03:26:55;;;;;;;;;7.00;6.25;;;;;10.61;56.68;101708.63;5319834;26;63907;-73
2024/04/19 03:29:20;;;;;;;;;7.00;4.00;;;;;10.60;55.99;101712.28;5337236;26;45005;-74
2024/04/19 03:31:45;;;;;;;;;8.00;6.00;;;;;10.62;56.25;101712.94;5328098;26;62453;-73
2024/04/19 03:34:11;;;;;;;;;3.50;3.50;;;;;10.56;55.38;101703.00;5328493;26;64392;-74
2024/04/19 03:36:36;;;;;;;;;7.00;5.50;;;;;10.60;55.73;101709.63;5334942;26;69425;-73
2024/04/19 03:39:03;;;;;;;;;6.00;3.25;;;;;10.58;56.17;101696.50;5313843;26;58754;-73
2024/04/19 03:41:33;;;;;;;;;7.00;6.00;;;;;10.55;55.89;101688.06;5344924;26;45198;-73
2024/04/19 03:46:45;;;;;;;;;6.25;4.00;;;;;10.54;55.45;101678.44;5307900;26;44016;-74
2024/04/19 03:49:10;;;;;;;;;6.25;4.00;;;;;10.53;56.51;101677.59;5314068;26;66087;-75
2024/04/19 03:51:36;;;;;;;;;8.00;4.00;;;;;10.48;56.03;101672.81;5321415;26;57989;-74
2024/04/19 03:54:02;;;;;;;;;7.00;6.00;;;;;10.49;55.47;101677.13;5247681;26;69492;-74
2024/04/19 03:56:28;;;;;;;;;7.50;4.00;;;;;10.49;55.57;101669.16;5316413;26;44717;-74
2024/04/19 03:58:53;;;;;;;;;6.00;6.00;;;;;10.49;56.38;101676.28;5319817;26;44115;-73
2024/04/19 04:01:18;;;;;;;;;6.50;4.00;;;;;10.50;56.22;101680.59;5286209;26;64944;-73
2024/04/19 04:03:44;;;;;;;;;4.00;4.00;;;;;10.48;56.28;101675.47;5334878;26;44087;-74
2024/04/19 04:06:09;;;;;;;;;8.25;4.00;;;;;10.49;55.92;101676.28;5310408;26;68716;-74
2024/04/19 04:08:34;;;;;;;;;3.00;3.00;;;;;10.50;55.84;101667.31;5332434;26;65710;-73
2024/04/19 04:11:00;;;;;;;;;7.00;6.75;;;;;10.48;55.91;101669.31;5299236;26;65535;-73
2024/04/19 04:13:26;;;;;;;;;4.50;3.00;;;;;10.40;56.40;101658.69;5327059;26;43941;-76
2024/04/19 04:15:52;;;;;;;;;4.00;4.00;;;;;10.36;55.64;101661.63;5273123;26;44065;-74
2024/04/19 04:18:18;;;;;;;;;6.00;3.00;;;;;10.39;56.03;101671.09;5311787;26;67442;-75
2024/04/19 04:20:43;;;;;;;;;6.50;5.00;;;;;10.36;56.55;101666.91;5268138;26;44059;-74
2024/04/19 04:23:09;;;;;;;;;7.00;3.75;;;;;10.37;55.70;101673.06;5281949;26;44034;-74
2024/04/19 04:25:37;;;;;;;;;12.25;5.00;;;;;10.34;56.88;101674.22;5311303;26;68725;-77
2024/04/19 04:28:03;;;;;;;;;7.75;3.00;;;;;10.33;56.25;101672.53;5312410;26;43933;-74
2024/04/19 04:30:28;;;;;;;;;6.25;3.25;;;;;10.34;56.48;101671.56;5314385;26;44082;-76
2024/04/19 04:32:54;;;;;;;;;5.00;3.75;;;;;10.36;57.16;101671.41;5311697;26;66421;-76
2024/04/19 04:35:19;;;;;;;;;4.00;4.00;;;;;10.32;56.19;101667.41;5312129;26;44567;-77
2024/04/19 04:37:45;;;;;;;;;5.00;3.00;;;;;10.35;55.98;101667.09;5287569;26;69023;-75
2024/04/19 04:40:10;;;;;;;;;5.50;4.25;;;;;10.32;57.50;101654.16;5316595;26;63159;-75
2024/04/19 04:42:36;;;;;;;;;6.75;6.50;;;;;10.31;57.55;101653.31;5322250;26;44123;-76
2024/04/19 04:45:02;;;;;;;;;3.25;3.00;;;;;10.30;55.96;101653.50;5320454;26;44701;-75
2024/04/19 04:47:27;;;;;;;;;5.50;5.50;;;;;10.28;56.44;101660.78;5319234;26;43993;-77
2024/04/19 04:49:52;;;;;;;;;4.25;4.25;;;;;10.24;56.57;101648.84;5320463;26;62511;-78
2024/04/19 04:52:18;;;;;;;;;2.75;2.00;;;;;10.25;57.22;101653.97;5286280;26;60392;-75
2024/04/19 04:54:43;;;;;;;;;6.75;3.00;;;;;10.27;56.87;101653.81;5325875;26;45012;-74
2024/04/19 04:57:09;;;;;;;;;6.00;4.00;;;;;10.27;57.48;101656.47;5329134;26;44262;-75
2024/04/19 04:59:34;;;;;;;;;3.25;3.00;;;;;10.26;57.38;101657.47;5322811;26;66346;-77
2024/04/19 05:02:00;;;;;;;;;4.25;4.25;;;;;10.25;57.73;101656.63;5343260;26;44101;-74
2024/04/19 05:04:25;;;;;;;;;7.75;3.00;;;;;10.21;57.74;101648.13;5305666;26;46919;-75
2024/04/19 05:06:52;;;;;;;;;6.00;3.75;;;;;10.23;56.78;101649.81;5309086;26;43947;-79
2024/04/19 05:09:18;;;;;;;;;6.75;2.75;;;;;10.23;57.41;101655.13;5312970;26;44507;-74
2024/04/19 05:11:43;;;;;;;;;4.50;3.25;;;;;10.23;57.56;101655.13;5311800;26;44333;-74
2024/04/19 05:14:09;;;;;;;;;6.25;3.00;;;;;10.16;57.38;101639.84;5311870;26;45644;-74
2024/04/19 05:16:34;;;;;;;;;6.00;3.00;;;;;10.18;57.58;101639.69;5309951;26;66223;-74
2024/04/19 05:18:59;;;;;;;;;8.00;2.00;;;;;10.23;57.39;101650.66;5312846;26;44575;-76
2024/04/19 05:21:25;;;;;;;;;3.75;3.00;;;;;10.24;57.79;101651.50;5311654;26;49442;-75
2024/04/19 05:23:50;;;;;;;;;4.00;3.00;;;;;10.22;57.51;101646.34;5329167;26;51313;-77
2024/04/19 05:26:16;;;;;;;;;4.00;3.75;;;;;10.24;57.99;101641.69;5308593;26;44009;-74
2024/04/19 05:28:41;;;;;;;;;3.00;3.00;;;;;10.15;58.13;101630.22;5281782;26;44009;-77
2024/04/19 05:31:07;;;;;;;;;6.75;3.50;;;;;10.20;58.04;101643.00;5311628;26;43834;-75
2024/04/19 05:33:32;;;;;;;;;5.75;4.50;;;;;10.19;57.51;101639.53;5313806;26;44777;-77
2024/04/19 05:35:57;;;;;;;;;5.75;3.75;;;;;10.19;57.59;101631.56;5284251;26;66666;-77
2024/04/19 05:38:23;;;;;;;;;6.75;3.00;;;;;10.21;57.61;101629.59;5319323;26;44099;-73
2024/04/19 05:40:48;;;;;;;;;6.75;3.00;;;;;10.18;57.46;101629.09;5320841;26;64080;-76
2024/04/19 05:43:14;;;;;;;;;6.00;3.00;;;;;10.19;58.16;101628.09;5292503;26;44357;-76
2024/04/19 05:45:40;;;;;;;;;7.00;3.75;;;;;10.21;58.12;101623.47;5320726;26;44157;-74
2024/04/19 05:48:06;;;;;;;;;6.25;3.00;;;;;10.17;57.67;101615.00;5324663;26;44166;-73
2024/04/19 05:50:31;;;;;;;;;9.25;7.00;;;;;10.23;57.87;101620.69;5333284;26;43901;-76
2024/04/19 05:52:57;;;;;;;;;7.50;3.50;;;;;10.24;58.00;101615.19;5316286;26;45611;-74
2024/04/19 05:55:22;;;;;;;;;7.00;5.75;;;;;10.24;58.28;101609.91;5328906;26;65640;-76
2024/04/19 05:57:47;;;;;;;;;5.00;3.25;;;;;10.27;57.42;101614.88;5326993;26;43648;-78
2024/04/19 06:00:13;;;;;;;;;6.25;3.25;;;;;10.27;57.95;101622.84;5330155;26;67731;-74
2024/04/19 06:02:39;;;;;;;;;5.00;2.00;;;;;10.30;58.18;101619.03;5289996;26;44399;-77
2024/04/19 06:05:05;;;;;;;;;3.50;2.50;;;;;10.32;58.06;101625.00;5290108;26;43959;-73
2024/04/19 06:07:30;;;;;;;;;3.75;3.50;;;;;10.32;57.72;101622.38;5336713;26;44088;-72
2024/04/19 06:09:55;;;;;;;;;3.00;2.00;;;;;10.31;58.02;101621.50;5323298;26;50533;-72
2024/04/19 06:12:21;;;;;;;;;2.75;2.00;;;;;10.32;57.58;101625.00;5297066;26;70505;-73
2024/04/19 06:14:46;;;;;;;;;4.25;2.25;;;;;10.34;57.83;101623.03;5326597;26;66862;-74
2024/04/19 06:17:11;;;;;;;;;7.25;2.75;;;;;10.36;58.32;101632.47;5315919;26;55789;-78
2024/04/19 06:19:37;;;;;;;;;6.50;4.25;;;;;10.30;58.08;101614.56;5318978;26;66663;-79
2024/04/19 06:22:02;;;;;;;;;4.00;3.00;;;;;10.39;57.62;101622.53;5322312;26;65089;-74
2024/04/19 06:24:27;;;;;;;;;6.75;4.00;;;;;10.41;57.91;101629.38;5316652;26;62739;-74
2024/04/19 06:26:53;;;;;;;;;9.00;3.00;;;;;10.43;57.60;101621.25;5317183;26;50951;-75
2024/04/19 06:29:18;;;;;;;;;3.00;3.00;;;;;10.45;57.53;101627.22;5322383;26;67112;-76
2024/04/19 06:31:44;;;;;;;;;3.25;2.00;;;;;10.43;58.02;101630.03;5318582;26;68616;-75
2024/04/19 06:34:09;;;;;;;;;3.25;2.00;;;;;10.46;58.00;101634.19;5320369;26;43896;-77
2024/04/19 06:36:35;;;;;;;;;2.75;2.75;;;;;10.45;58.01;101627.22;5312535;26;49564;-73
2024/04/19 06:39:00;;;;;;;;;3.00;3.00;;;;;10.43;58.36;101630.03;5330230;26;63377;-74
2024/04/19 06:41:26;;;;;;;;;6.75;2.00;;;;;10.43;58.18;101629.19;5324112;26;63840;-73
2024/04/19 06:43:51;;;;;;;;;4.50;4.00;;;;;10.40;57.69;101625.06;5294586;26;43997;-69
2024/04/19 06:46:17;;;;;;;;;6.25;2.25;;;;;10.44;58.75;101628.22;5314089;26;64212;-72
2024/04/19 06:48:42;;;;;;;;;2.50;2.50;;;;;10.42;58.36;101620.44;5313560;26;44000;-72
2024/04/19 06:51:08;;;;;;;;;3.00;3.00;;;;;10.42;59.41;101625.72;5312472;26;45673;-70
2024/04/19 06:53:33;;;;;;;;;3.00;3.00;;;;;10.45;57.92;101621.91;5313389;26;44015;-69
2024/04/19 06:55:58;;;;;;;;;13.00;12.75;;;;;10.48;58.28;101622.44;5315620;26;44402;-69
2024/04/19 06:58:24;;;;;;;;;3.50;2.00;;;;;10.49;58.63;101613.47;5312413;26;63147;-69
2024/04/19 07:00:50;;;;;;;;;7.00;2.50;;;;;10.53;59.11;101618.47;5253314;26;66982;-68
2024/04/19 07:03:16;;;;;;;;;4.50;3.00;;;;;10.54;59.29;101615.63;5321805;26;45028;-68
2024/04/19 07:05:42;;;;;;;;;3.00;3.00;;;;;10.51;58.34;101610.66;5311942;26;62617;-69
2024/04/19 07:08:07;;;;;;;;;4.00;1.00;;;;;10.53;58.18;101611.31;5314015;26;44337;-69
2024/04/19 07:10:37;;;;;;;;;6.00;3.75;;;;;10.53;58.51;101610.50;5310105;26;70421;-69
2024/04/19 07:13:03;;;;;;;;;2.00;2.00;;;;;10.55;58.64;101613.81;5322142;26;44044;-69
2024/04/19 07:15:28;;;;;;;;;5.00;3.25;;;;;10.53;58.49;101606.03;5325194;26;44255;-70
2024/04/19 07:17:54;;;;;;;;;5.00;3.75;;;;;10.58;58.78;101611.66;5281343;26;68836;-73
2024/04/19 07:20:19;;;;;;;;;6.00;3.00;;;;;10.56;58.52;101605.69;5314265;26;51643;-68
2024/04/19 07:22:45;;;;;;;;;7.25;3.75;;;;;10.63;58.38;101604.06;5314678;26;44080;-68
2024/04/19 07:25:10;;;;;;;;;5.50;3.00;;;;;10.63;58.69;101597.94;5310176;26;44441;-68
2024/04/19 07:27:36;;;;;;;;;4.50;3.00;;;;;10.66;58.79;101600.25;5282348;26;44212;-68
2024/04/19 07:30:01;;;;;;;;;3.75;2.00;;;;;10.69;59.16;101599.09;5313314;26;44075;-69
2024/04/19 07:32:27;;;;;;;;;2.00;2.00;;;;;10.72;60.17;101599.59;5311463;26;64312;-68
2024/04/19 07:34:52;;;;;;;;;6.00;2.00;;;;;10.79;58.59;101610.38;5281826;26;61755;-68
2024/04/19 07:37:17;;;;;;;;;2.75;1.75;;;;;10.81;59.07;101608.41;5311707;26;64672;-70
2024/04/19 07:39:43;;;;;;;;;4.00;3.00;;;;;10.84;59.63;101609.88;5319934;26;45030;-68
2024/04/19 07:42:08;;;;;;;;;6.25;3.00;;;;;10.88;59.11;101612.06;5316485;26;44240;-69
2024/04/19 07:44:33;;;;;;;;;3.00;3.00;;;;;10.90;59.95;101603.91;5308200;26;60648;-68
2024/04/19 07:46:59;;;;;;;;;5.50;3.00;;;;;10.91;59.30;101610.88;5303782;26;66105;-68
2024/04/19 07:49:24;;;;;;;;;2.00;2.00;;;;;10.93;59.84;101607.06;5304505;26;69076;-69
2024/04/19 07:51:49;;;;;;;;;3.75;2.00;;;;;10.96;59.60;101605.09;5281780;26;66789;-67
2024/04/19 07:54:15;;;;;;;;;7.00;3.00;;;;;10.93;59.57;101596.47;5303854;26;58125;-68
2024/04/19 07:56:43;;;;;;;;;3.00;2.00;;;;;10.91;60.03;101585.19;5282599;26;66678;-69
2024/04/19 07:59:09;;;;;;;;;4.00;2.00;;;;;11.00;59.57;101586.03;5321990;26;44375;-68
2024/04/19 08:01:35;;;;;;;;;4.00;3.00;;;;;11.03;59.68;101585.69;5317457;26;44080;-68
2024/04/19 08:04:00;;;;;;;;;8.50;1.50;;;;;11.05;58.85;101585.50;5314508;26;62988;-69
2024/04/19 08:06:26;;;;;;;;;4.75;2.00;;;;;11.08;59.86;101593.13;5252584;26;44055;-70
2024/04/19 08:08:51;;;;;;;;;3.75;3.00;;;;;11.15;59.24;101580.03;5311472;26;72534;-69
2024/04/19 08:11:16;;;;;;;;;3.75;3.00;;;;;11.20;59.29;101583.03;5284534;26;69462;-69
2024/04/19 08:13:42;;;;;;;;;2.00;2.00;;;;;11.21;59.42;101580.19;5308301;26;44367;-69
2024/04/19 08:16:07;;;;;;;;;2.00;2.00;;;;;11.25;60.02;101590.47;5314218;26;64130;-69
2024/04/19 08:18:34;;;;;;;;;3.50;2.75;;;;;11.26;59.46;101577.03;5321220;26;44395;-69
2024/04/19 08:20:59;;;;;;;;;6.25;4.00;;;;;11.27;59.60;101570.72;5296154;26;44115;-69
2024/04/19 08:23:25;;;;;;;;;2.00;1.50;;;;;11.28;59.92;101574.19;5253007;26;65827;-69
2024/04/19 08:25:51;;;;;;;;;4.50;2.00;;;;;11.27;58.58;101573.38;5311950;26;44147;-69
2024/04/19 08:28:16;;;;;;;;;4.25;3.00;;;;;11.26;59.28;101574.38;5275123;26;43992;-69
2024/04/19 08:30:42;;;;;;;;;5.00;4.00;;;;;11.26;59.54;101579.69;5312459;26;66582;-69
2024/04/19 08:33:07;;;;;;;;;18.25;14.75;;;;;11.25;58.91;101575.38;5280523;26;60805;-69
2024/04/19 08:35:33;;;;;;;;;5.25;4.00;;;;;11.25;59.41;101572.72;5282238;26;44105;-69
2024/04/19 08:37:58;;;;;;;;;4.00;3.00;;;;;11.28;60.02;101574.19;5311903;26;68601;-68
2024/04/19 08:40:24;;;;;;;;;3.00;3.00;;;;;11.30;59.80;101574.84;5312191;26;62806;-68
2024/04/19 08:42:50;;;;;;;;;4.25;3.00;;;;;11.32;59.94;101564.91;5280372;26;43954;-69
2024/04/19 08:45:16;;;;;;;;;7.00;4.00;;;;;11.33;58.94;101561.25;5315337;26;44237;-70
2024/04/19 08:47:41;;;;;;;;;4.00;2.00;;;;;11.33;60.55;101564.75;5260327;26;67459;-70
2024/04/19 08:50:06;;;;;;;;;3.00;3.00;;;;;11.35;60.32;101568.06;5270319;26;43961;-70
2024/04/19 08:52:32;;;;;;;;;5.75;3.25;;;;;11.36;59.70;101553.78;5241599;26;64143;-70
2024/04/19 08:54:57;;;;;;;;;3.00;3.00;;;;;11.38;59.26;101553.63;5326926;26;56873;-70
2024/04/19 08:57:26;;;;;;;;;3.00;3.00;;;;;11.38;59.53;101549.13;5313015;26;43965;-70
2024/04/19 08:59:51;;;;;;;;;4.50;3.00;;;;;11.41;59.80;101544.47;5255845;26;45024;-70
2024/04/19 09:02:17;;;;;;;;;4.50;3.00;;;;;11.45;60.67;101549.28;5297215;26;44400;-70
2024/04/19 09:04:42;;;;;;;;;7.00;2.50;;;;;11.47;59.75;101557.06;5257659;26;63181;-70
2024/04/19 09:07:07;;;;;;;;;3.00;3.00;;;;;11.50;60.08;101557.56;5313410;26;66834;-70
2024/04/19 09:09:33;;;;;;;;;4.00;3.00;;;;;11.51;59.82;101548.63;5310953;26;62043;-69
2024/04/19 09:11:58;;;;;;;;;4.00;2.50;;;;;11.56;59.35;101558.72;5245815;26;43873;-70
2024/04/19 09:14:23;;;;;;;;;2.25;2.25;;;;;11.58;59.23;101564.69;5318781;26;47211;-69
2024/04/19 09:16:49;;;;;;;;;5.00;2.00;;;;;11.61;59.71;101566.19;5317191;26;58152;-70
2024/04/19 09:19:15;;;;;;;;;4.00;2.25;;;;;11.60;59.36;101565.31;5310901;26;68185;-69
2024/04/19 09:21:40;;;;;;;;;3.50;2.00;;;;;11.62;60.75;101568.66;5311734;26;59511;-70
2024/04/19 09:24:08;;;;;;;;;3.50;3.50;;;;;11.65;59.48;101568.31;5310681;26;44163;-70
2024/04/19 09:26:34;;;;;;;;;4.50;2.25;;;;;11.65;59.94;101555.03;5311717;26;44237;-70
2024/04/19 09:28:59;;;;;;;;;7.75;5.50;;;;;11.69;59.42;101560.84;5311525;26;43968;-70
2024/04/19 09:31:26;;;;;;;;;4.00;3.00;;;;;11.71;60.03;101558.00;5283577;26;61506;-70
2024/04/19 09:33:54;;;;;;;;;8.00;2.50;;;;;11.73;60.58;101562.16;5285126;26;44359;-69
2024/04/19 09:36:19;;;;;;;;;5.00;4.00;;;;;11.76;60.33;101553.00;5278417;26;44908;-69
2024/04/19 09:38:45;;;;;;;;;5.75;3.25;;;;;11.81;59.38;101551.47;5311970;26;44405;-69
2024/04/19 09:41:14;;;;;;;;;4.50;3.25;;;;;11.85;59.44;101553.78;5319387;26;44214;-69
2024/04/19 09:43:39;;;;;;;;;4.00;4.00;;;;;11.85;59.66;101532.53;5296346;26;44125;-70
2024/04/19 09:46:05;;;;;;;;;8.25;4.00;;;;;11.87;60.58;101541.16;5261761;26;69291;-70
2024/04/19 09:48:35;;;;;;;;;5.25;5.00;;;;;11.90;59.81;101544.31;5254034;26;65952;-69
2024/04/19 09:51:01;;;;;;;;;8.75;4.00;;;;;11.92;60.75;101549.44;5289043;26;43969;-69
2024/04/19 09:53:31;;;;;;;;;4.00;4.00;;;;;11.92;60.41;101542.31;5272244;26;44440;-70
2024/04/19 09:56:09;;;;;;;;;8.00;3.00;;;;;11.91;60.62;101545.13;5292519;26;45229;-70
2024/04/19 09:58:34;;;;;;;;;5.00;2.75;;;;;11.92;59.82;101538.81;5317231;26;44330;-70
2024/04/19 10:01:00;;;;;;;;;6.50;3.00;;;;;11.94;60.05;101542.13;5263962;26;64292;-70
2024/04/19 10:03:27;;;;;;;;;3.00;3.00;;;;;11.99;60.12;101531.78;5288134;26;44388;-70
2024/04/19 10:05:52;;;;;;;;;4.25;2.75;;;;;12.00;60.80;101516.69;5294954;26;44668;-70
2024/04/19 10:08:18;;;;;;;;;4.50;3.25;;;;;12.10;60.71;101530.63;5327039;26;44307;-69
2024/04/19 10:10:43;;;;;;;;;2.75;2.75;;;;;12.08;60.27;101522.00;5294854;26;44122;-69
2024/04/19 10:13:08;;;;;;;;;4.25;3.00;;;;;12.17;60.88;101517.47;5321945;26;61485;-69
2024/04/19 10:15:34;;;;;;;;;7.50;4.00;;;;;12.19;60.29;101502.97;5289041;26;68564;-69
2024/04/19 10:18:03;;;;;;;;;2.50;2.50;;;;;12.26;60.42;101503.09;5237852;27;44052;-69
2024/04/19 10:20:28;;;;;;;;;3.00;3.00;;;;;12.30;60.66;101503.56;5319627;26;44315;-69
2024/04/19 10:22:54;;;;;;;;;4.75;2.00;;;;;12.35;60.08;101509.19;5325264;26;49976;-69
2024/04/19 10:25:25;;;;;;;;;8.00;4.25;;;;;12.38;60.31;101508.81;5315219;26;66034;-69
2024/04/19 10:27:50;;;;;;;;;6.25;3.25;;;;;12.41;59.54;101507.66;5310369;26;44484;-69
2024/04/19 10:30:17;;;;;;;;;4.00;4.00;;;;;12.45;60.22;101508.94;5309739;26;65513;-69
2024/04/19 10:32:42;;;;;;;;;4.50;3.50;;;;;12.48;59.39;101508.59;5272409;26;44135;-69
2024/04/19 10:35:16;;;;;;;;;4.00;4.00;;;;;12.48;60.17;101501.44;5316726;26;44713;-69
2024/04/19 10:37:42;;;;;;;;;3.50;3.00;;;;;12.50;58.95;101506.59;5263148;26;44561;-68
2024/04/19 10:40:08;;;;;;;;;5.00;2.50;;;;;12.52;59.32;101515.22;5313847;26;65880;-69
2024/04/19 10:42:33;;;;;;;;;8.25;3.50;;;;;12.54;59.82;101506.06;5322516;26;44004;-68
2024/04/19 10:44:58;;;;;;;;;5.00;4.00;;;;;12.57;59.21;101504.06;5319324;26;67840;-69
2024/04/19 10:47:24;;;;;;;;;4.00;4.00;;;;;12.56;59.31;101502.41;5313329;26;44289;-70
2024/04/19 10:49:49;;;;;;;;;3.50;2.50;;;;;12.57;59.68;101504.06;5332064;26;65641;-70
2024/04/19 10:52:19;;;;;;;;;4.50;3.00;;;;;12.56;60.05;101503.22;5255280;26;64662;-70
2024/04/19 10:54:44;;;;;;;;;5.50;3.50;;;;;12.54;59.05;101490.09;5287481;26;47792;-70
2024/04/19 10:57:09;;;;;;;;;6.00;3.00;;;;;12.58;59.60;101492.41;5311970;26;69550;-72
2024/04/19 10:59:35;;;;;;;;;7.50;4.00;;;;;12.58;59.91;101489.75;5328077;26;50856;-72
2024/04/19 11:02:01;;;;;;;;;4.50;4.50;;;;;12.56;59.77;101479.28;5329512;26;44027;-72
2024/04/19 11:04:27;;;;;;;;;5.00;3.00;;;;;12.63;59.87;101484.72;5287849;26;44512;-71
2024/04/19 11:06:52;;;;;;;;;3.25;3.00;;;;;12.63;59.75;101477.53;5300727;26;43936;-72
2024/04/19 11:09:18;;;;;;;;;5.00;4.00;;;;;12.65;59.72;101472.06;5314504;26;44076;-71
2024/04/19 11:11:44;;;;;;;;;7.00;4.50;;;;;12.68;60.01;101477.81;5304158;26;44034;-71
2024/04/19 11:14:10;;;;;;;;;7.00;3.00;;;;;12.73;59.57;101460.50;5268531;26;43987;-71
2024/04/19 11:16:35;;;;;;;;;6.00;4.25;;;;;12.78;59.80;101466.94;5336977;26;44036;-71
2024/04/19 11:19:01;;;;;;;;;6.25;4.00;;;;;12.77;60.00;101469.75;5282152;26;44482;-70
2024/04/19 11:21:26;;;;;;;;;9.25;3.00;;;;;12.78;59.43;101469.59;5289636;26;44248;-71
2024/04/19 11:23:51;;;;;;;;;4.00;4.00;;;;;12.79;59.64;101471.25;5254374;26;44382;-72